createdAt,value
2023-04-29T00:01:42.758Z,26.93
2023-04-29T00:04:10.135Z,26.17
2023-04-29T00:06:37.480Z,26.00
2023-04-29T00:09:04.760Z,27.97
2023-04-29T00:11:32.280Z,25.77
2023-04-29T00:13:59.517Z,26.40
2023-04-29T00:16:27.168Z,28.97
2023-04-29T00:18:54.413Z,28.97
2023-04-29T00:21:21.669Z,29.60
2023-04-29T00:23:49.067Z,28.87
2023-04-29T00:26:16.755Z,30.63
2023-04-29T00:28:43.958Z,30.30
2023-04-29T00:31:11.262Z,31.27
2023-04-29T00:33:40.777Z,32.77
2023-04-29T00:36:08.615Z,32.00
2023-04-29T00:38:35.819Z,31.73
2023-04-29T00:41:03.611Z,33.63
2023-04-29T00:43:30.768Z,32.87
2023-04-29T00:45:58.132Z,37.20
2023-04-29T00:48:25.354Z,36.93
2023-04-29T00:50:53.148Z,33.53
2023-04-29T00:53:20.840Z,35.20
2023-04-29T00:55:48.841Z,35.27
2023-04-29T00:58:17.613Z,34.70
2023-04-29T01:00:46.889Z,31.90
2023-04-29T01:03:14.373Z,34.87
2023-04-29T01:05:41.915Z,34.20
2023-04-29T01:08:17.817Z,35.80
2023-04-29T01:10:49.969Z,37.20
2023-04-29T01:13:23.245Z,36.67
2023-04-29T01:15:55.581Z,33.63
2023-04-29T01:18:28.465Z,32.87
2023-04-29T01:20:56.241Z,37.03
2023-04-29T01:23:27.034Z,34.17
2023-04-29T01:25:54.313Z,35.53
2023-04-29T01:28:24.504Z,35.80
2023-04-29T01:31:02.360Z,36.03
2023-04-29T01:33:29.539Z,35.17
2023-04-29T01:36:14.002Z,35.90
2023-04-29T01:39:04.043Z,36.10
2023-04-29T01:42:06.530Z,36.73
2023-04-29T01:44:34.771Z,37.90
2023-04-29T01:47:02.173Z,37.70
2023-04-29T01:49:29.787Z,36.53
2023-04-29T01:51:57.037Z,38.60
2023-04-29T01:54:24.378Z,38.50
2023-04-29T01:56:52.209Z,40.50
2023-04-29T01:59:19.745Z,41.00
2023-04-29T02:01:47.346Z,40.43
2023-04-29T02:04:14.574Z,38.10
2023-04-29T02:06:41.942Z,40.17
2023-04-29T02:09:09.144Z,41.17
2023-04-29T02:11:36.447Z,37.47
2023-04-29T02:14:03.698Z,34.60
2023-04-29T02:16:30.969Z,34.83
2023-04-29T02:18:58.205Z,33.13
2023-04-29T02:21:25.632Z,34.30
2023-04-29T02:23:54.452Z,33.67
2023-04-29T02:26:21.626Z,30.93
2023-04-29T02:28:48.823Z,29.50
2023-04-29T02:31:15.937Z,29.33
2023-04-29T02:33:43.330Z,30.90
2023-04-29T02:36:10.626Z,28.80
2023-04-29T02:38:37.860Z,30.13
2023-04-29T02:41:05.058Z,28.83
2023-04-29T02:43:32.301Z,27.27
2023-04-29T02:46:00.372Z,28.50
2023-04-29T02:48:27.705Z,27.30
2023-04-29T02:50:54.874Z,28.77
2023-04-29T02:53:22.205Z,26.30
2023-04-29T02:55:49.563Z,25.43
2023-04-29T02:58:16.840Z,24.10
2023-04-29T03:00:44.081Z,25.50
2023-04-29T03:03:11.417Z,23.27
2023-04-29T03:05:38.685Z,25.23
2023-04-29T03:08:05.832Z,23.03
2023-04-29T03:10:33.097Z,22.63
2023-04-29T03:13:00.230Z,24.17
2023-04-29T03:15:27.375Z,24.40
2023-04-29T03:17:54.854Z,23.30
2023-04-29T03:20:22.078Z,23.63
2023-04-29T03:22:49.493Z,23.83
2023-04-29T03:25:16.744Z,23.50
2023-04-29T03:27:43.969Z,23.53
2023-04-29T03:30:11.338Z,24.90
2023-04-29T03:32:38.686Z,23.90
2023-04-29T03:35:06.308Z,24.00
2023-04-29T03:37:33.508Z,23.87
2023-04-29T03:40:00.749Z,22.60
2023-04-29T03:42:27.940Z,21.27
2023-04-29T03:44:55.055Z,21.53
2023-04-29T03:47:22.350Z,21.27
2023-04-29T03:49:49.700Z,20.93
2023-04-29T03:52:16.992Z,22.37
2023-04-29T03:54:44.235Z,21.27
2023-04-29T03:57:11.436Z,21.53
2023-04-29T03:59:38.592Z,23.03
2023-04-29T04:02:05.787Z,22.20
2023-04-29T04:04:33.275Z,20.87
2023-04-29T04:07:01.009Z,20.97
2023-04-29T04:09:28.145Z,20.43
2023-04-29T04:11:55.295Z,20.13
2023-04-29T04:14:22.521Z,19.77
2023-04-29T04:16:50.809Z,20.07
2023-04-29T04:19:20.661Z,23.13
2023-04-29T04:21:47.908Z,19.73
2023-04-29T04:24:15.156Z,20.80
2023-04-29T04:26:44.806Z,20.33
2023-04-29T04:29:11.986Z,18.87
2023-04-29T04:31:39.408Z,20.23
2023-04-29T04:34:06.706Z,19.97
2023-04-29T04:36:33.945Z,21.60
2023-04-29T04:39:01.100Z,21.80
2023-04-29T04:41:31.602Z,22.07
2023-04-29T04:43:58.781Z,18.83
2023-04-29T04:46:25.946Z,20.90
2023-04-29T04:48:53.131Z,21.30
2023-04-29T04:51:22.942Z,20.43
2023-04-29T04:53:50.479Z,20.63
2023-04-29T04:56:17.812Z,21.10
2023-04-29T04:58:45.159Z,20.80
2023-04-29T05:01:12.339Z,22.23
2023-04-29T05:03:39.675Z,20.63
2023-04-29T05:06:06.963Z,20.87
2023-04-29T05:08:34.119Z,21.50
2023-04-29T05:11:01.449Z,21.43
2023-04-29T05:13:28.626Z,21.53
2023-04-29T05:15:56.229Z,20.63
2023-04-29T05:18:23.429Z,21.37
2023-04-29T05:20:50.664Z,21.63
2023-04-29T05:23:18.257Z,20.73
2023-04-29T05:25:45.479Z,21.10
2023-04-29T05:28:12.710Z,19.53
2023-04-29T05:30:39.901Z,20.90
2023-04-29T05:33:07.196Z,18.93
2023-04-29T05:35:34.359Z,19.00
2023-04-29T05:38:01.507Z,22.90
2023-04-29T05:40:28.711Z,19.70
2023-04-29T05:42:55.898Z,21.27
2023-04-29T05:45:23.140Z,21.07
2023-04-29T05:47:53.388Z,21.17
2023-04-29T05:50:20.633Z,20.73
2023-04-29T05:52:47.797Z,20.87
2023-04-29T05:55:15.418Z,19.70
2023-04-29T05:57:42.569Z,19.27
2023-04-29T06:00:10.042Z,21.53
2023-04-29T06:02:50.667Z,20.13
2023-04-29T06:05:25.270Z,20.93
2023-04-29T06:07:52.815Z,20.37
2023-04-29T06:10:20.272Z,20.03
2023-04-29T06:12:50.842Z,20.27
2023-04-29T06:15:20.329Z,19.40
2023-04-29T06:17:48.622Z,18.50
2023-04-29T06:20:17.675Z,19.97
2023-04-29T06:22:45.482Z,19.43
2023-04-29T06:25:13.986Z,18.40
2023-04-29T06:27:41.155Z,17.77
2023-04-29T06:30:08.799Z,19.13
2023-04-29T06:32:36.107Z,19.67
2023-04-29T06:35:03.399Z,18.90
2023-04-29T06:37:30.541Z,19.40
2023-04-29T06:39:57.686Z,19.70
2023-04-29T06:42:24.839Z,18.80
2023-04-29T06:44:52.082Z,18.77
2023-04-29T06:47:22.231Z,18.87
2023-04-29T06:49:53.583Z,19.53
2023-04-29T06:52:21.058Z,19.23
2023-04-29T06:54:48.507Z,20.43
2023-04-29T06:57:15.827Z,21.00
2023-04-29T06:59:43.075Z,19.90
2023-04-29T07:02:10.230Z,19.07
2023-04-29T07:04:37.588Z,18.60
2023-04-29T07:07:05.446Z,21.23
2023-04-29T07:09:32.680Z,21.33
2023-04-29T07:11:59.890Z,20.73
2023-04-29T07:14:27.107Z,22.10
2023-04-29T07:16:55.296Z,20.03
2023-04-29T07:19:22.684Z,20.27
2023-04-29T07:21:49.930Z,18.40
2023-04-29T07:24:17.121Z,19.97
2023-04-29T07:26:45.297Z,19.53
2023-04-29T07:29:12.492Z,19.57
2023-04-29T07:31:39.682Z,19.53
2023-04-29T07:34:06.873Z,19.37
2023-04-29T07:36:34.171Z,20.37
2023-04-29T07:39:01.421Z,19.60
2023-04-29T07:41:28.733Z,20.37
2023-04-29T07:43:55.949Z,21.73
2023-04-29T07:46:23.596Z,24.50
2023-04-29T07:48:50.956Z,25.27
2023-04-29T07:51:20.521Z,25.20
2023-04-29T07:53:47.824Z,26.70
2023-04-29T07:56:15.088Z,24.93
2023-04-29T07:58:42.243Z,24.10
2023-04-29T08:01:10.439Z,24.93
2023-04-29T08:03:40.609Z,26.00
2023-04-29T08:06:08.801Z,23.20
2023-04-29T08:08:36.204Z,23.60
2023-04-29T08:11:03.677Z,25.60
2023-04-29T08:13:30.853Z,26.30
2023-04-29T08:15:58.138Z,23.80
2023-04-29T08:18:25.417Z,25.00
2023-04-29T08:20:52.622Z,25.60
2023-04-29T08:23:19.830Z,26.70
2023-04-29T08:25:47.129Z,24.27
2023-04-29T08:28:14.352Z,23.97
2023-04-29T08:30:41.959Z,24.40
2023-04-29T08:33:09.594Z,24.13
2023-04-29T08:35:39.625Z,23.93
2023-04-29T08:38:06.959Z,24.20
2023-04-29T08:40:37.385Z,23.73
2023-04-29T08:43:05.393Z,22.50
2023-04-29T08:45:34.148Z,24.50
2023-04-29T08:48:02.236Z,24.10
2023-04-29T08:50:30.635Z,23.97
2023-04-29T08:52:57.874Z,24.23
2023-04-29T08:55:26.201Z,24.77
2023-04-29T08:57:55.383Z,24.97
2023-04-29T09:00:23.744Z,26.17
2023-04-29T09:02:52.315Z,24.43
2023-04-29T09:05:19.740Z,23.73
2023-04-29T09:07:47.563Z,23.27
2023-04-29T09:10:15.484Z,24.50
2023-04-29T09:12:42.662Z,22.87
2023-04-29T09:15:10.043Z,24.00
2023-04-29T09:17:44.867Z,24.70
2023-04-29T09:20:21.381Z,24.03
2023-04-29T09:22:52.522Z,24.00
2023-04-29T09:25:20.755Z,24.50
2023-04-29T09:27:49.455Z,23.10
2023-04-29T09:30:17.033Z,24.03
2023-04-29T09:32:45.717Z,23.23
2023-04-29T09:35:23.969Z,22.87
2023-04-29T09:37:51.767Z,22.93
2023-04-29T09:40:31.991Z,20.87
2023-04-29T09:42:59.800Z,22.50
2023-04-29T09:45:39.763Z,24.17
2023-04-29T09:48:08.590Z,22.77
2023-04-29T09:50:39.313Z,23.60
2023-04-29T09:53:09.052Z,23.00
2023-04-29T09:55:36.872Z,22.67
2023-04-29T09:58:04.225Z,21.63
2023-04-29T10:00:35.332Z,21.70
2023-04-29T10:03:02.612Z,22.20
2023-04-29T10:05:33.081Z,22.27
2023-04-29T10:08:00.495Z,21.27
2023-04-29T10:10:30.285Z,21.77
2023-04-29T10:13:00.559Z,20.77
2023-04-29T10:15:36.475Z,22.73
2023-04-29T10:18:06.472Z,21.37
2023-04-29T10:20:34.149Z,21.83
2023-04-29T10:23:01.332Z,20.43
2023-04-29T10:25:29.711Z,21.73
2023-04-29T10:27:57.061Z,21.27
2023-04-29T10:30:24.405Z,21.00
2023-04-29T10:32:52.669Z,20.90
2023-04-29T10:35:22.926Z,20.87
2023-04-29T10:37:50.597Z,21.07
2023-04-29T10:40:28.732Z,22.70
2023-04-29T10:42:56.037Z,22.17
2023-04-29T10:45:29.385Z,22.93
2023-04-29T10:48:11.869Z,23.00
2023-04-29T10:51:00.283Z,22.77
2023-04-29T10:53:28.581Z,20.83
2023-04-29T10:55:57.833Z,23.07
2023-04-29T10:58:38.242Z,21.47
2023-04-29T11:01:06.159Z,22.33
2023-04-29T11:03:47.092Z,20.77
2023-04-29T11:06:14.543Z,19.70
2023-04-29T11:08:43.407Z,21.27
2023-04-29T11:11:10.721Z,21.00
2023-04-29T11:13:41.135Z,21.00
2023-04-29T11:16:09.214Z,21.88
2023-04-29T11:18:37.580Z,21.15
2023-04-29T11:21:07.923Z,20.80
2023-04-29T11:23:35.651Z,20.50
2023-04-29T11:26:03.309Z,20.50
2023-04-29T11:28:34.106Z,18.95
2023-04-29T11:31:03.644Z,20.67
2023-04-29T11:33:33.555Z,20.10
2023-04-29T11:36:01.224Z,19.38
2023-04-29T11:38:29.020Z,19.52
2023-04-29T11:40:56.852Z,17.70
2023-04-29T11:43:24.510Z,16.20
2023-04-29T11:45:52.504Z,19.05
2023-04-29T11:48:26.547Z,18.30
2023-04-29T11:51:00.166Z,17.90
2023-04-29T11:53:28.039Z,15.50
2023-04-29T11:55:55.747Z,17.30
2023-04-29T11:58:23.392Z,17.13
2023-04-29T12:00:51.873Z,15.93
2023-04-29T12:03:20.273Z,17.15
2023-04-29T12:05:54.015Z,19.33
2023-04-29T12:08:21.763Z,17.77
2023-04-29T12:10:49.550Z,15.05
2023-04-29T12:13:18.186Z,14.75
2023-04-29T12:15:46.705Z,14.75
2023-04-29T12:18:14.450Z,14.07
2023-04-29T12:20:41.870Z,15.52
2023-04-29T12:23:12.977Z,15.02
2023-04-29T12:25:43.532Z,13.98
2023-04-29T12:28:14.086Z,12.63
2023-04-29T12:30:41.631Z,14.05
2023-04-29T12:33:12.607Z,13.73
2023-04-29T12:35:39.888Z,15.57
2023-04-29T12:38:07.065Z,13.65
2023-04-29T12:40:34.339Z,12.00
2023-04-29T12:43:08.505Z,12.63
2023-04-29T12:45:36.105Z,12.82
2023-04-29T12:48:08.780Z,12.02
2023-04-29T12:50:37.932Z,11.40
2023-04-29T12:53:06.552Z,12.15
2023-04-29T12:55:34.945Z,12.60
2023-04-29T12:58:03.567Z,11.85
2023-04-29T13:00:31.031Z,12.88
2023-04-29T13:02:58.668Z,13.50
2023-04-29T13:05:26.167Z,11.88
2023-04-29T13:07:53.452Z,12.32
2023-04-29T13:10:20.616Z,9.32
2023-04-29T13:12:49.735Z,9.77
2023-04-29T13:15:16.977Z,9.65
2023-04-29T13:17:44.321Z,10.35
2023-04-29T13:20:12.192Z,10.68
2023-04-29T13:22:39.976Z,10.45
2023-04-29T13:25:07.491Z,9.82
2023-04-29T13:27:35.309Z,11.02
2023-04-29T13:30:02.809Z,10.32
2023-04-29T13:32:43.088Z,10.80
2023-04-29T13:35:13.623Z,11.15
2023-04-29T13:37:40.793Z,10.85
2023-04-29T13:40:08.451Z,10.18
2023-04-29T13:42:46.028Z,10.27
2023-04-29T13:45:17.140Z,11.88
2023-04-29T13:48:03.049Z,9.23
2023-04-29T13:53:31.583Z,11.02
2023-04-29T13:56:46.341Z,9.13
2023-04-29T14:01:26.060Z,8.55
2023-04-29T14:03:54.236Z,9.18
2023-04-29T14:06:21.509Z,9.27
2023-04-29T14:08:48.694Z,8.88
2023-04-29T14:11:16.221Z,9.02
2023-04-29T14:13:43.996Z,9.68
2023-04-29T14:16:11.678Z,10.35
2023-04-29T14:18:38.891Z,8.57
2023-04-29T14:21:06.302Z,7.82
2023-04-29T14:23:33.498Z,8.05
2023-04-29T14:28:31.428Z,7.78
2023-04-29T14:30:58.842Z,7.13
2023-04-29T14:33:26.138Z,7.63
2023-04-29T14:35:53.533Z,7.60
2023-04-29T14:38:20.770Z,8.40
2023-04-29T14:40:50.408Z,9.90
2023-04-29T14:43:17.618Z,10.10
2023-04-29T14:45:45.384Z,11.23
2023-04-29T14:48:12.825Z,10.85
2023-04-29T14:50:40.011Z,10.20
2023-04-29T14:53:08.982Z,9.75
2023-04-29T14:55:36.216Z,10.60
2023-04-29T14:58:05.060Z,9.95
2023-04-29T15:00:32.382Z,10.20
2023-04-29T15:03:02.009Z,10.00
2023-04-29T15:05:30.555Z,8.60
2023-04-29T15:08:01.666Z,8.35
2023-04-29T15:10:28.949Z,8.18
2023-04-29T15:12:56.148Z,9.13
2023-04-29T15:15:23.830Z,15.77
2023-04-29T15:17:51.140Z,8.02
2023-04-29T15:20:18.596Z,10.30
2023-04-29T15:22:45.879Z,8.02
2023-04-29T15:25:13.136Z,7.78
2023-04-29T15:27:43.504Z,6.28
2023-04-29T15:30:11.190Z,8.27
2023-04-29T15:32:38.925Z,6.72
2023-04-29T15:35:07.031Z,6.43
2023-04-29T15:37:34.747Z,5.95
2023-04-29T15:40:02.313Z,6.30
2023-04-29T15:42:29.588Z,6.35
2023-04-29T15:44:56.790Z,9.30
2023-04-29T15:47:24.024Z,8.18
2023-04-29T15:49:52.480Z,6.78
2023-04-29T15:52:23.891Z,6.22
2023-04-29T15:54:51.708Z,9.48
2023-04-29T15:57:19.032Z,9.27
2023-04-29T15:59:46.370Z,9.68
2023-04-29T16:02:15.331Z,9.50
2023-04-29T16:04:42.626Z,10.13
2023-04-29T16:07:09.777Z,11.02
2023-04-29T16:09:36.977Z,10.57
2023-04-29T16:12:04.267Z,9.55
2023-04-29T16:14:31.640Z,9.45
2023-04-29T16:16:59.062Z,9.30
2023-04-29T16:19:26.297Z,8.88
2023-04-29T16:21:53.511Z,8.77
2023-04-29T16:24:20.914Z,8.98
2023-04-29T16:26:50.636Z,9.88
2023-04-29T16:29:20.617Z,9.88
2023-04-29T16:31:47.857Z,9.88
2023-04-29T16:34:15.486Z,8.38
2023-04-29T16:36:42.736Z,8.30
2023-04-29T16:39:09.882Z,7.60
2023-04-29T16:41:37.491Z,7.72
2023-04-29T16:44:04.707Z,7.80
2023-04-29T16:46:32.665Z,7.97
2023-04-29T16:48:59.885Z,7.97
2023-04-29T16:51:29.185Z,8.70
2023-04-29T16:53:56.664Z,7.90
2023-04-29T16:56:23.935Z,8.10
2023-04-29T16:58:51.168Z,8.63
2023-04-29T17:01:19.935Z,7.95
2023-04-29T17:03:50.456Z,7.65
2023-04-29T17:06:17.808Z,7.78
2023-04-29T17:08:45.528Z,7.10
2023-04-29T17:11:12.781Z,7.00
2023-04-29T17:13:40.015Z,6.25
2023-04-29T17:16:07.726Z,6.57
2023-04-29T17:18:34.999Z,6.28
2023-04-29T17:21:02.959Z,10.98
2023-04-29T17:23:33.287Z,8.25
2023-04-29T17:26:01.169Z,7.43
2023-04-29T17:28:29.215Z,7.30
2023-04-29T17:31:00.008Z,8.18
2023-04-29T17:33:39.590Z,6.88
2023-04-29T17:36:07.094Z,6.90
2023-04-29T17:38:34.258Z,7.00
2023-04-29T17:41:02.343Z,7.75
2023-04-29T17:43:32.471Z,8.05
2023-04-29T17:45:59.805Z,6.57
2023-04-29T17:48:27.128Z,9.32
2023-04-29T17:50:54.684Z,7.03
2023-04-29T17:53:21.844Z,6.75
2023-04-29T17:55:49.402Z,6.75
2023-04-29T17:58:16.751Z,7.10
2023-04-29T18:00:44.009Z,6.85
2023-04-29T18:03:11.312Z,7.18
2023-04-29T18:05:38.580Z,7.20
2023-04-29T18:08:05.925Z,6.68
2023-04-29T18:10:33.111Z,7.38
2023-04-29T18:13:00.386Z,8.13
2023-04-29T18:15:27.551Z,8.32
2023-04-29T18:17:55.029Z,7.35
2023-04-29T18:20:22.550Z,7.45
2023-04-29T18:22:50.759Z,6.82
2023-04-29T18:25:18.138Z,6.45
2023-04-29T18:27:45.368Z,7.60
2023-04-29T18:30:12.686Z,7.55
2023-04-29T18:32:40.019Z,7.30
2023-04-29T18:35:07.572Z,10.60
2023-04-29T18:37:34.864Z,9.73
2023-04-29T18:40:02.040Z,8.68
2023-04-29T18:42:29.285Z,7.15
2023-04-29T18:44:56.452Z,8.85
2023-04-29T18:47:23.738Z,9.02
2023-04-29T18:49:51.000Z,8.20
2023-04-29T18:52:18.438Z,9.13
2023-04-29T18:54:45.831Z,8.68
2023-04-29T18:57:13.073Z,8.40
2023-04-29T18:59:40.245Z,7.65
2023-04-29T19:02:08.030Z,9.05
2023-04-29T19:04:35.901Z,8.88
2023-04-29T19:07:06.077Z,8.05
2023-04-29T19:09:33.484Z,7.80
2023-04-29T19:12:03.431Z,9.57
2023-04-29T19:14:32.992Z,14.20
2023-04-29T19:17:00.668Z,13.68
2023-04-29T19:19:27.810Z,14.13
2023-04-29T19:21:54.998Z,13.07
2023-04-29T19:24:22.157Z,13.27
2023-04-29T19:26:52.510Z,10.77
2023-04-29T19:29:22.149Z,10.75
2023-04-29T19:31:52.590Z,10.73
2023-04-29T19:34:20.111Z,9.75
2023-04-29T19:36:47.273Z,10.45
2023-04-29T19:39:16.767Z,11.23
2023-04-29T19:41:44.090Z,9.38
2023-04-29T19:44:12.133Z,9.05
2023-04-29T19:46:39.377Z,8.82
2023-04-29T19:49:06.616Z,9.13
2023-04-29T19:51:33.801Z,8.98
2023-04-29T19:54:01.728Z,9.32
2023-04-29T19:56:28.913Z,9.88
2023-04-29T19:58:56.904Z,11.73
2023-04-29T20:01:24.162Z,10.25
2023-04-29T20:03:51.370Z,10.65
2023-04-29T20:06:18.791Z,10.52
2023-04-29T20:08:46.214Z,10.88
2023-04-29T20:11:13.477Z,11.60
2023-04-29T20:13:40.803Z,12.77
2023-04-29T20:16:08.371Z,13.00
2023-04-29T20:18:38.373Z,13.00
2023-04-29T20:21:06.881Z,13.60
2023-04-29T20:23:34.066Z,14.73
2023-04-29T20:26:01.534Z,14.73
2023-04-29T20:28:28.862Z,13.68
2023-04-29T20:30:56.073Z,14.63
2023-04-29T20:33:23.290Z,17.27
2023-04-29T20:35:53.345Z,13.53
2023-04-29T20:38:22.469Z,13.37
2023-04-29T20:40:53.606Z,13.23
2023-04-29T20:43:20.776Z,14.77
2023-04-29T20:45:47.970Z,11.90
2023-04-29T20:48:16.044Z,12.80
2023-04-29T20:50:43.290Z,11.47
2023-04-29T20:53:11.125Z,11.23
2023-04-29T20:55:38.346Z,10.17
2023-04-29T20:58:05.598Z,9.60
2023-04-29T21:00:32.988Z,9.17
2023-04-29T21:03:00.345Z,9.37
2023-04-29T21:05:27.638Z,8.40
2023-04-29T21:07:54.771Z,9.77
2023-04-29T21:10:22.644Z,8.93
2023-04-29T21:12:49.865Z,9.27
2023-04-29T21:15:17.604Z,8.23
2023-04-29T21:17:44.770Z,9.50
2023-04-29T21:20:12.293Z,10.40
2023-04-29T21:22:39.445Z,13.33
2023-04-29T21:25:06.728Z,14.27
2023-04-29T21:27:35.778Z,11.23
2023-04-29T21:30:04.768Z,10.60
2023-04-29T21:32:33.815Z,11.03
2023-04-29T21:35:01.184Z,9.53
2023-04-29T21:37:30.380Z,10.20
2023-04-29T21:40:00.122Z,9.20
2023-04-29T21:42:27.685Z,8.90
2023-04-29T21:44:55.657Z,8.47
2023-04-29T21:47:22.946Z,9.73
2023-04-29T21:49:50.943Z,11.00
2023-04-29T21:52:18.581Z,8.13
2023-04-29T21:54:46.174Z,8.73
2023-04-29T21:57:13.319Z,10.60
2023-04-29T21:59:40.632Z,9.73
2023-04-29T22:02:27.589Z,9.50
2023-04-29T22:04:55.191Z,8.20
2023-04-29T22:07:22.847Z,8.73
2023-04-29T22:09:50.247Z,10.77
2023-04-29T22:12:23.508Z,9.53
2023-04-29T22:14:51.171Z,9.17
2023-04-29T22:17:20.097Z,9.93
2023-04-29T22:19:48.255Z,8.17
2023-04-29T22:22:15.447Z,7.97
2023-04-29T22:24:42.604Z,7.33
2023-04-29T22:27:09.792Z,12.67
2023-04-29T22:29:37.172Z,12.63
2023-04-29T22:32:04.705Z,12.17
2023-04-29T22:34:31.886Z,9.27
2023-04-29T22:36:59.054Z,9.10
2023-04-29T22:39:26.261Z,7.70
2023-04-29T22:41:53.428Z,7.80
2023-04-29T22:44:20.717Z,6.70
2023-04-29T22:46:47.901Z,7.23
2023-04-29T22:49:15.078Z,7.43
2023-04-29T22:51:42.273Z,7.73
2023-04-29T22:54:09.464Z,7.43
2023-04-29T22:56:36.655Z,7.60
2023-04-29T22:59:03.833Z,7.47
2023-04-29T23:01:31.054Z,7.10
2023-04-29T23:03:58.274Z,7.70
2023-04-29T23:06:26.236Z,8.67
2023-04-29T23:08:54.003Z,7.83
2023-04-29T23:11:21.990Z,7.60
2023-04-29T23:13:49.408Z,12.47
2023-04-29T23:16:16.689Z,8.00
2023-04-29T23:18:43.927Z,7.63
2023-04-29T23:21:11.091Z,8.37
2023-04-29T23:23:38.282Z,8.67
2023-04-29T23:26:05.562Z,9.10
2023-04-29T23:28:32.764Z,9.47
2023-04-29T23:30:59.963Z,19.63
2023-04-29T23:33:27.205Z,13.40
2023-04-29T23:35:54.418Z,10.20
2023-04-29T23:38:21.664Z,11.03
2023-04-29T23:40:49.242Z,10.70
2023-04-29T23:43:16.521Z,9.43
2023-04-29T23:45:47.259Z,9.50
2023-04-29T23:48:16.058Z,10.00
2023-04-29T23:50:43.325Z,9.63
2023-04-29T23:53:10.521Z,9.17
2023-04-29T23:55:37.667Z,9.13
2023-04-29T23:58:04.936Z,9.23
